Time;durP1;ratioP1;P1;durP2;ratioP2;P2;SDS_P1;SDS_P2;PMS_P1;PMS_P2;Temp;Humidity;BMP_temperature;BMP_pressure;BME280_temperature;BME280_humidity;BME280_pressure;Samples;Min_cycle;Max_cycle;Signal;HPM_P1;HPM_P2
2022/03/09 00:01:21;;;;;;;37.20;22.50;;;;;;;1.05;100.00;100666.88;5031227;28;20425;-75
2022/03/09 00:03:46;;;;;;;35.77;21.73;;;;;;;1.05;100.00;100669.41;5031135;28;20036;-77
2022/03/09 00:06:12;;;;;;;35.23;22.77;;;;;;;1.02;100.00;100674.25;5031058;28;20029;-77
2022/03/09 00:08:37;;;;;;;37.40;20.97;;;;;;;0.81;100.00;100664.19;5030969;28;20061;-75
2022/03/09 00:11:03;;;;;;;37.00;23.53;;;;;;;0.76;100.00;100666.34;4997101;28;20025;-74
2022/03/09 00:13:28;;;;;;;41.03;24.03;;;;;;;0.43;100.00;100664.53;5030940;28;20025;-79
2022/03/09 00:15:53;;;;;;;41.00;24.40;;;;;;;0.36;100.00;100673.28;5030616;28;20029;-78
2022/03/09 00:18:19;;;;;;;39.53;22.33;;;;;;;0.35;100.00;100653.75;5031022;28;20060;-79
2022/03/09 00:20:45;;;;;;;41.10;22.67;;;;;;;0.16;100.00;100648.81;5029596;28;20040;-79
2022/03/09 00:23:10;;;;;;;43.67;24.43;;;;;;;0.27;100.00;100652.25;5031042;28;20468;-78
2022/03/09 00:25:36;;;;;;;42.07;24.37;;;;;;;0.46;100.00;100658.06;5030812;28;20036;-80
2022/03/09 00:28:01;;;;;;;38.27;22.53;;;;;;;0.46;100.00;100619.94;5030708;28;20033;-80
2022/03/09 00:30:27;;;;;;;34.67;21.73;;;;;;;0.14;100.00;100552.25;5012607;28;20142;-76
2022/03/09 00:32:52;;;;;;;39.17;23.50;;;;;;;0.52;100.00;100614.44;5031140;28;20033;-76
2022/03/09 00:35:18;;;;;;;36.90;22.50;;;;;;;0.55;100.00;100619.78;5030910;28;20048;-74
2022/03/09 00:37:43;;;;;;;36.13;22.57;;;;;;;0.73;100.00;100639.81;5012891;28;20606;-75
2022/03/09 00:40:10;;;;;;;34.83;21.97;;;;;;;0.57;100.00;100610.63;5030687;28;20408;-75
2022/03/09 00:42:37;;;;;;;47.20;28.00;;;;;;;0.53;100.00;100630.59;5030448;28;20472;-77
2022/03/09 00:45:03;;;;;;;33.70;22.30;;;;;;;0.08;100.00;100625.38;5030302;28;20404;-76
2022/03/09 00:47:29;;;;;;;35.23;21.73;;;;;;;-0.14;100.00;100637.06;5012822;28;20504;-78
2022/03/09 00:49:54;;;;;;;35.90;21.17;;;;;;;-0.42;100.00;100615.38;5030577;28;20036;-74
2022/03/09 00:52:20;;;;;;;32.40;20.60;;;;;;;-0.36;100.00;100637.84;5030378;28;20029;-75
2022/03/09 00:54:47;;;;;;;36.13;22.13;;;;;;;-0.35;100.00;100627.81;4996326;28;20144;-76
2022/03/09 00:57:13;;;;;;;37.83;23.10;;;;;;;-0.29;100.00;100637.56;5030422;28;20025;-76
2022/03/09 00:59:38;;;;;;;38.50;23.37;;;;;;;-0.62;100.00;100612.81;5011596;28;20037;-72
2022/03/09 01:02:04;;;;;;;36.60;22.23;;;;;;;-0.50;100.00;100606.22;5030538;28;20463;-72
2022/03/09 01:04:29;;;;;;;38.33;21.63;;;;;;;-0.32;100.00;100629.72;5030420;28;20036;-75
2022/03/09 01:06:55;;;;;;;39.53;23.03;;;;;;;-0.30;100.00;100623.09;5030393;28;20037;-75
2022/03/09 01:09:20;;;;;;;37.70;21.03;;;;;;;-0.23;100.00;100601.69;5030278;28;20033;-78
2022/03/09 01:11:46;;;;;;;36.90;20.93;;;;;;;-0.10;100.00;100611.16;5030456;28;20044;-77
2022/03/09 01:14:11;;;;;;;37.13;21.27;;;;;;;-0.17;100.00;100612.34;5012167;28;20033;-76
2022/03/09 01:16:37;;;;;;;37.67;23.10;;;;;;;-0.15;100.00;100615.88;5030537;28;20030;-78
2022/03/09 01:19:02;;;;;;;42.67;24.67;;;;;;;-0.06;100.00;100618.28;5030194;28;20081;-76
2022/03/09 01:21:28;;;;;;;38.77;22.13;;;;;;;-0.03;100.00;100605.84;5030643;28;20038;-78
2022/03/09 01:23:53;;;;;;;42.27;25.17;;;;;;;-0.02;100.00;100610.16;5012603;28;20036;-77
2022/03/09 01:26:19;;;;;;;40.70;23.90;;;;;;;0.13;100.00;100607.97;5030472;28;20045;-77
2022/03/09 01:28:44;;;;;;;41.20;25.07;;;;;;;0.11;100.00;100615.47;5029715;28;20042;-77
2022/03/09 01:31:10;;;;;;;39.60;23.53;;;;;;;0.01;100.00;100620.53;5030440;28;20034;-77
2022/03/09 01:33:35;;;;;;;37.53;21.80;;;;;;;-0.17;100.00;100600.53;5030049;28;20479;-78
2022/03/09 01:36:01;;;;;;;38.00;22.13;;;;;;;-0.23;100.00;100625.38;5012326;28;20037;-75
2022/03/09 01:38:26;;;;;;;38.00;21.70;;;;;;;-0.40;100.00;100607.88;5012299;28;20518;-71
2022/03/09 01:40:52;;;;;;;39.27;22.27;;;;;;;-1.01;100.00;100556.34;5030016;28;20462;-71
2022/03/09 01:43:18;;;;;;;41.03;25.47;;;;;;;-0.88;100.00;100622.53;5029979;28;20531;-75
2022/03/09 01:45:43;;;;;;;43.67;26.27;;;;;;;-0.91;100.00;100629.00;5029961;28;20029;-74
2022/03/09 01:48:10;;;;;;;43.07;25.50;;;;;;;-1.17;100.00;100612.47;5029879;28;20039;-77
2022/03/09 01:50:35;;;;;;;44.73;24.60;;;;;;;-1.17;100.00;100620.94;5030128;28;20036;-78
2022/03/09 01:53:01;;;;;;;44.90;27.80;;;;;;;-1.12;100.00;100626.41;5007559;28;20038;-77
2022/03/09 01:55:27;;;;;;;46.97;30.10;;;;;;;-1.12;100.00;100600.19;5008152;28;20409;-76
2022/03/09 01:57:52;;;;;;;40.20;25.77;;;;;;;-0.79;100.00;100631.69;4990878;28;20061;-78
2022/03/09 02:00:18;;;;;;;39.77;23.70;;;;;;;-1.06;100.00;100570.28;5007838;28;20030;-78
2022/03/09 02:02:44;;;;;;;44.00;24.97;;;;;;;-0.67;100.00;100620.06;5007735;28;20096;-78
2022/03/09 02:05:09;;;;;;;45.07;26.43;;;;;;;-0.49;100.00;100628.31;5007894;28;20040;-79
2022/03/09 02:10:20;;;;;;;50.70;28.03;;;;;;;-0.42;100.00;100612.84;5008397;28;20037;-78
2022/03/09 02:12:46;;;;;;;44.03;26.10;;;;;;;-0.38;100.00;100617.41;5011540;28;20108;-77
2022/03/09 02:15:11;;;;;;;41.67;24.43;;;;;;;-0.41;100.00;100616.25;4994789;28;20038;-77
2022/03/09 02:17:37;;;;;;;42.70;24.53;;;;;;;-0.54;100.00;100614.34;5011116;28;20034;-78
2022/03/09 02:20:03;;;;;;;50.33;25.10;;;;;;;-1.07;100.00;100512.78;5011104;28;20069;-77
2022/03/09 02:22:39;;;;;;;54.53;27.03;;;;;;;-0.67;100.00;100577.81;5010870;28;20041;-77
2022/03/09 02:25:08;;;;;;;65.13;31.07;;;;;;;-0.62;100.00;100582.38;5013654;28;20033;-77
2022/03/09 02:27:34;;;;;;;50.47;25.83;;;;;;;-0.43;100.00;100595.84;5032947;28;20025;-76
2022/03/09 02:30:01;;;;;;;50.97;25.10;;;;;;;-0.37;100.00;100610.69;5032824;28;20046;-77
2022/03/09 02:32:28;;;;;;;49.70;25.40;;;;;;;-0.54;100.00;100610.16;5014983;28;20037;-77
2022/03/09 02:34:53;;;;;;;50.40;26.77;;;;;;;-0.59;100.00;100602.94;5032862;28;20053;-77
2022/03/09 02:37:19;;;;;;;43.27;24.17;;;;;;;-0.73;100.00;100576.44;5032591;28;20038;-78
2022/03/09 02:39:44;;;;;;;49.37;25.07;;;;;;;-0.48;100.00;100614.88;5032746;28;20033;-77
2022/03/09 02:42:10;;;;;;;44.23;23.40;;;;;;;-0.39;100.00;100624.88;5014891;28;20033;-77
2022/03/09 02:44:36;;;;;;;44.50;23.90;;;;;;;-0.28;100.00;100621.59;4991230;28;20408;-77
2022/03/09 02:47:02;;;;;;;40.37;23.17;;;;;;;-0.60;100.00;100578.34;4992710;28;20038;-78
2022/03/09 02:49:27;;;;;;;44.50;23.90;;;;;;;-0.48;100.00;100614.00;4991308;28;20031;-78
2022/03/09 02:51:53;;;;;;;41.37;24.43;;;;;;;-0.42;100.00;100612.84;4992499;28;20455;-77
2022/03/09 02:54:18;;;;;;;40.70;23.73;;;;;;;-0.46;100.00;100597.22;4991156;28;20489;-78
2022/03/09 02:56:44;;;;;;;37.83;22.63;;;;;;;-0.28;100.00;100624.13;4992630;28;20037;-77
2022/03/09 02:59:09;;;;;;;41.73;23.37;;;;;;;-0.27;100.00;100608.16;4992578;28;20077;-76
2022/03/09 03:01:35;;;;;;;37.13;21.67;;;;;;;-0.22;100.00;100604.34;4970229;28;20035;-79
2022/03/09 03:04:00;;;;;;;34.93;20.83;;;;;;;-0.23;100.00;100616.91;4954112;28;20049;-79
2022/03/09 03:06:26;;;;;;;40.60;23.37;;;;;;;-0.22;100.00;100618.69;4952456;28;20540;-78
2022/03/09 03:08:53;;;;;;;38.37;22.30;;;;;;;-0.14;100.00;100614.22;4951548;28;20490;-76
2022/03/09 03:11:18;;;;;;;38.97;22.70;;;;;;;-0.13;100.00;100609.28;4948249;28;20079;-76
2022/03/09 03:13:45;;;;;;;38.37;22.53;;;;;;;-0.47;100.00;100571.00;4951089;28;20039;-77
2022/03/09 03:16:11;;;;;;;37.10;22.07;;;;;;;-0.31;100.00;100608.66;4966708;28;20429;-77
2022/03/09 03:18:37;;;;;;;38.80;22.90;;;;;;;-0.47;100.00;100615.75;4950894;28;20038;-77
2022/03/09 03:21:03;;;;;;;42.27;24.57;;;;;;;-0.51;100.00;100623.09;4950545;28;20046;-77
2022/03/09 03:23:31;;;;;;;44.17;24.47;;;;;;;-0.46;100.00;100608.28;4950290;28;20430;-77
2022/03/09 03:25:57;;;;;;;37.43;22.07;;;;;;;-0.38;100.00;100619.94;4950884;28;20035;-76
2022/03/09 03:28:24;;;;;;;39.77;22.00;;;;;;;-0.47;100.00;100600.53;4950523;28;20047;-77
2022/03/09 03:30:50;;;;;;;37.87;21.90;;;;;;;-0.44;100.00;100609.28;4950565;28;20051;-76
2022/03/09 03:33:17;;;;;;;40.03;22.53;;;;;;;-0.50;100.00;100608.75;4988895;28;20053;-77
2022/03/09 03:35:43;;;;;;;36.87;21.83;;;;;;;-0.46;100.00;100620.06;5004482;28;20408;-78
2022/03/09 03:38:10;;;;;;;46.23;22.80;;;;;;;-0.55;100.00;100608.41;4996426;28;20049;-77
2022/03/09 03:40:36;;;;;;;38.40;23.53;;;;;;;-0.62;100.00;100612.81;4991313;28;20031;-77
2022/03/09 03:43:02;;;;;;;34.77;21.63;;;;;;;-0.76;100.00;100583.78;4974457;28;20177;-76
2022/03/09 03:45:28;;;;;;;38.20;22.17;;;;;;;-1.02;100.00;100536.88;4991822;28;20097;-76
2022/03/09 03:47:53;;;;;;;38.10;23.17;;;;;;;-0.71;100.00;100587.56;4969576;28;20117;-77
2022/03/09 03:50:19;;;;;;;37.50;22.80;;;;;;;-0.70;100.00;100620.69;4968998;28;20577;-77
2022/03/09 03:52:44;;;;;;;35.57;23.20;;;;;;;-0.97;100.00;100576.16;4969234;28;20046;-77
2022/03/09 03:55:10;;;;;;;38.20;22.97;;;;;;;-0.97;100.00;100588.84;4985603;28;20034;-76
2022/03/09 03:57:35;;;;;;;42.03;23.17;;;;;;;-0.72;100.00;100628.94;4969439;28;20031;-75
2022/03/09 04:00:02;;;;;;;38.17;22.77;;;;;;;-0.64;100.00;100619.44;4969324;28;20026;-75
2022/03/09 04:02:27;;;;;;;35.20;21.97;;;;;;;-0.63;100.00;100611.94;4969319;28;20497;-73
2022/03/09 04:04:53;;;;;;;32.63;20.27;;;;;;;-0.62;100.00;100622.97;4969371;28;20049;-73
2022/03/09 04:07:19;;;;;;;37.50;20.33;;;;;;;-0.80;100.00;100627.38;4969340;28;20555;-74
2022/03/09 04:09:45;;;;;;;32.07;19.83;;;;;;;-0.83;100.00;100625.47;4984645;28;20026;-74
2022/03/09 04:12:12;;;;;;;32.83;18.00;;;;;;;-1.04;100.00;100622.88;4969428;28;20034;-77
2022/03/09 04:14:37;;;;;;;36.90;20.60;;;;;;;-1.22;100.00;100639.94;4986886;28;20628;-75
2022/03/09 04:17:03;;;;;;;36.77;20.37;;;;;;;-1.15;100.00;100634.66;4988613;28;20112;-76
2022/03/09 04:19:49;;;;;;;36.90;20.17;;;;;;;-1.02;100.00;100638.22;4952640;28;20054;-76
2022/03/09 04:22:14;;;;;;;37.10;19.90;;;;;;;-1.01;100.00;100629.84;4950381;29;20048;-76
2022/03/09 04:24:40;;;;;;;35.00;20.20;;;;;;;-1.02;100.00;100631.50;4934500;29;20050;-77
2022/03/09 04:27:05;;;;;;;32.33;20.00;;;;;;;-1.03;100.00;100628.84;4950831;29;20121;-76
2022/03/09 04:29:31;;;;;;;33.07;20.20;;;;;;;-1.09;100.00;100628.31;4949907;29;20166;-77
2022/03/09 04:31:57;;;;;;;31.07;19.37;;;;;;;-1.08;100.00;100633.50;4950213;29;20051;-77
2022/03/09 04:34:23;;;;;;;33.03;19.83;;;;;;;-1.01;100.00;100629.84;4950186;28;20437;-76
2022/03/09 04:36:50;;;;;;;30.80;18.60;;;;;;;-1.16;100.00;100619.28;4950431;29;20122;-76
2022/03/09 04:39:15;;;;;;;35.83;20.13;;;;;;;-1.21;100.00;100640.81;4950458;28;20452;-76
2022/03/09 04:41:41;;;;;;;37.30;20.53;;;;;;;-1.92;100.00;100529.22;4969521;28;20125;-76
2022/03/09 04:44:06;;;;;;;35.83;21.40;;;;;;;-1.68;100.00;100588.69;4969645;28;20415;-76
2022/03/09 04:46:32;;;;;;;33.83;19.47;;;;;;;-1.81;100.00;100589.28;4969634;28;20077;-76
2022/03/09 04:48:57;;;;;;;35.77;19.37;;;;;;;-1.63;100.00;100629.63;4969477;28;20114;-76
2022/03/09 04:51:23;;;;;;;33.90;19.50;;;;;;;-1.52;100.00;100654.22;4953042;28;20038;-76
2022/03/09 04:53:48;;;;;;;40.70;20.80;;;;;;;-1.69;100.00;100649.31;4969572;28;20034;-76
2022/03/09 04:56:14;;;;;;;35.93;19.97;;;;;;;-1.82;100.00;100660.88;4971982;28;20094;-76
2022/03/09 04:58:40;;;;;;;39.33;20.50;;;;;;;-1.76;100.00;100649.53;5010749;28;20499;-76
2022/03/09 05:01:05;;;;;;;38.77;21.47;;;;;;;-1.74;100.00;100641.31;4992876;28;20038;-76
2022/03/09 05:03:32;;;;;;;37.53;20.73;;;;;;;-1.74;100.00;100623.59;5010844;28;20101;-76
2022/03/09 05:05:58;;;;;;;38.83;22.17;;;;;;;-1.61;100.00;100639.88;5010794;28;20542;-75
2022/03/09 05:08:24;;;;;;;60.87;33.60;;;;;;;-1.47;100.00;100660.59;5010721;28;20034;-76
2022/03/09 05:10:49;;;;;;;57.30;31.27;;;;;;;-1.52;100.00;100639.03;5010644;28;20037;-76
2022/03/09 05:13:15;;;;;;;43.23;23.00;;;;;;;-1.40;100.00;100656.06;5010391;28;20033;-76
2022/03/09 05:15:41;;;;;;;42.00;25.43;;;;;;;-1.31;100.00;100661.91;4994905;28;20034;-75
2022/03/09 05:18:06;;;;;;;41.50;24.33;;;;;;;-1.44;100.00;100639.69;5030528;28;20033;-76
2022/03/09 05:20:31;;;;;;;97.90;52.67;;;;;;;-1.72;100.00;100575.63;5028976;28;20030;-76
2022/03/09 05:22:57;;;;;;;168.10;89.13;;;;;;;-1.32;100.00;100652.56;4997616;28;20030;-76
2022/03/09 05:25:42;;;;;;;120.87;69.17;;;;;;;-1.21;100.00;100678.81;5010595;28;20030;-75
2022/03/09 05:28:08;;;;;;;50.10;31.17;;;;;;;-1.29;100.00;100669.66;4978084;28;20046;-75
2022/03/09 05:30:33;;;;;;;43.60;23.73;;;;;;;-1.56;100.00;100633.56;4972144;28;20050;-75
2022/03/09 05:33:00;;;;;;;41.40;24.93;;;;;;;-1.33;100.00;100673.56;4988590;28;20417;-75
2022/03/09 05:35:25;;;;;;;36.57;20.97;;;;;;;-1.32;100.00;100688.03;4988528;28;20038;-75
2022/03/09 05:37:51;;;;;;;36.70;21.40;;;;;;;-1.51;100.00;100650.94;4988498;28;20424;-75
2022/03/09 05:40:16;;;;;;;42.73;24.93;;;;;;;-1.23;100.00;100682.88;4988684;28;20045;-75
2022/03/09 05:42:43;;;;;;;43.10;23.70;;;;;;;-1.19;100.00;100695.03;4988464;28;20046;-79
2022/03/09 05:45:09;;;;;;;51.60;29.03;;;;;;;-1.15;100.00;100682.78;4983222;28;21037;-75
2022/03/09 05:47:35;;;;;;;42.03;24.53;;;;;;;-1.02;100.00;100688.91;4972507;28;20074;-78
2022/03/09 05:50:00;;;;;;;43.37;22.97;;;;;;;-1.18;100.00;100644.50;4972708;28;20126;-75
2022/03/09 05:52:26;;;;;;;36.43;22.90;;;;;;;-0.78;100.00;100701.91;4969799;28;20074;-76
2022/03/09 05:54:52;;;;;;;43.13;24.03;;;;;;;-0.78;100.00;100699.38;4972660;28;20043;-76
2022/03/09 05:57:22;;;;;;;40.27;22.47;;;;;;;-0.67;100.00;100696.13;4970975;28;20480;-76
2022/03/09 05:59:48;;;;;;;36.80;22.38;;;;;;;-0.56;100.00;100703.00;4987134;28;20030;-76
2022/03/09 06:02:13;;;;;;;37.30;22.90;;;;;;;-0.45;100.00;100692.84;5013789;28;20034;-76
2022/03/09 06:04:39;;;;;;;39.40;23.17;;;;;;;-0.68;100.00;100643.63;4978748;28;20448;-76
2022/03/09 06:07:05;;;;;;;40.20;23.23;;;;;;;-0.27;100.00;100702.03;4996334;28;20123;-76
2022/03/09 06:09:30;;;;;;;55.80;30.40;;;;;;;-0.16;100.00;100695.31;5013748;28;20033;-76
2022/03/09 06:11:57;;;;;;;83.80;43.10;;;;;;;-0.11;100.00;100695.66;4971488;28;20130;-77
2022/03/09 06:14:23;;;;;;;76.23;40.67;;;;;;;-0.12;100.00;100683.78;4972050;28;20155;-74
2022/03/09 06:16:48;;;;;;;52.17;31.00;;;;;;;0.06;100.00;100699.63;4972365;28;20506;-77
2022/03/09 06:19:15;;;;;;;41.83;24.83;;;;;;;0.03;100.00;100690.09;4972249;28;20523;-77
2022/03/09 06:21:42;;;;;;;35.97;22.90;;;;;;;0.21;100.00;100700.00;4952409;29;20774;-77
2022/03/09 06:24:07;;;;;;;37.10;22.67;;;;;;;0.00;100.00;100651.78;4952356;29;20047;-77
2022/03/09 06:26:33;;;;;;;39.77;24.13;;;;;;;0.34;100.00;100700.25;4952256;29;20043;-77
2022/03/09 06:29:00;;;;;;;38.73;22.73;;;;;;;0.22;100.00;100673.84;4952347;28;20042;-76
2022/03/09 06:31:25;;;;;;;40.70;24.70;;;;;;;0.49;100.00;100700.59;4952225;29;20051;-74
2022/03/09 06:33:51;;;;;;;37.53;22.77;;;;;;;0.36;100.00;100706.31;4952630;29;20529;-76
2022/03/09 06:36:17;;;;;;;40.97;25.07;;;;;;;0.36;100.00;100708.84;4952414;29;20094;-75
2022/03/09 06:38:42;;;;;;;53.97;37.60;;;;;;;0.25;100.00;100702.00;4952279;29;20043;-75
2022/03/09 06:41:09;;;;;;;167.33;79.50;;;;;;;0.21;100.00;100722.84;4952020;29;20399;-75
2022/03/09 06:43:36;;;;;;;103.23;49.53;;;;;;;0.14;100.00;100708.78;4967123;28;20043;-75
2022/03/09 06:46:03;;;;;;;181.50;80.80;;;;;;;0.20;100.00;100706.72;4971558;28;20046;-75
2022/03/09 06:48:29;;;;;;;134.03;71.10;;;;;;;0.24;100.00;100695.19;4954811;28;20105;-76
2022/03/09 06:50:54;;;;;;;103.83;52.50;;;;;;;0.26;100.00;100699.63;4973278;28;20034;-74
2022/03/09 06:53:20;;;;;;;45.93;25.93;;;;;;;0.11;100.00;100663.72;5009648;28;20489;-76
2022/03/09 06:55:45;;;;;;;40.97;24.53;;;;;;;0.40;100.00;100710.91;5022118;28;20021;-77
2022/03/09 06:58:11;;;;;;;43.60;25.73;;;;;;;0.59;100.00;100710.72;5023179;28;20026;-75
2022/03/09 07:00:37;;;;;;;43.13;25.60;;;;;;;0.64;100.00;100698.41;5021274;28;20026;-74
2022/03/09 07:03:05;;;;;;;43.20;25.70;;;;;;;0.71;100.00;100700.66;5022520;28;20434;-75
2022/03/09 07:05:32;;;;;;;43.33;25.83;;;;;;;0.82;100.00;100705.72;5018851;28;20030;-75
2022/03/09 07:07:59;;;;;;;46.73;26.67;;;;;;;0.74;100.00;100690.72;5022017;28;20029;-75
2022/03/09 07:10:25;;;;;;;41.23;24.43;;;;;;;0.82;100.00;100715.88;5021835;28;20515;-75
2022/03/09 07:12:50;;;;;;;39.47;24.20;;;;;;;0.52;100.00;100651.69;5020860;28;20050;-75
2022/03/09 07:15:16;;;;;;;36.97;22.43;;;;;;;0.78;100.00;100712.19;5022206;28;20052;-75
2022/03/09 07:17:42;;;;;;;39.23;22.97;;;;;;;0.80;100.00;100709.00;5022083;28;20495;-75
2022/03/09 07:20:09;;;;;;;41.13;24.80;;;;;;;0.84;100.00;100677.09;5020546;28;20460;-75
2022/03/09 07:22:36;;;;;;;39.90;24.07;;;;;;;0.82;100.00;100698.09;5022298;28;20514;-75
2022/03/09 07:25:01;;;;;;;38.57;23.13;;;;;;;1.07;100.00;100706.00;5021558;28;20080;-75
2022/03/09 07:27:27;;;;;;;41.87;24.70;;;;;;;1.13;100.00;100702.28;5020441;28;20038;-75
2022/03/09 07:29:52;;;;;;;37.60;23.73;;;;;;;1.29;100.00;100706.91;5022446;28;20049;-76
2022/03/09 07:32:18;;;;;;;40.90;25.07;;;;;;;1.19;100.00;100667.94;5022458;28;20076;-75
2022/03/09 07:34:43;;;;;;;36.57;22.37;;;;;;;1.29;100.00;100691.63;5022178;28;20400;-75
2022/03/09 07:37:09;;;;;;;37.87;22.67;;;;;;;1.44;100.00;100694.47;5020434;28;20451;-75
2022/03/09 07:39:35;;;;;;;35.23;22.03;;;;;;;1.49;100.00;100693.97;5021978;28;20786;-74
2022/03/09 07:42:01;;;;;;;31.63;20.73;;;;;;;1.72;98.71;100698.25;5021743;28;20422;-75
2022/03/09 07:44:26;;;;;;;34.03;22.10;;;;;;;1.76;98.39;100696.06;5020698;28;20104;-75
2022/03/09 07:46:52;;;;;;;39.13;24.70;;;;;;;1.68;96.28;100650.44;5014922;28;20104;-75
2022/03/09 07:49:19;;;;;;;35.70;22.37;;;;;;;2.15;97.28;100705.69;5021424;28;20393;-75
2022/03/09 07:51:45;;;;;;;34.67;22.00;;;;;;;2.25;96.31;100703.94;5021140;28;20549;-75
2022/03/09 07:54:11;;;;;;;34.85;23.02;;;;;;;2.35;95.99;100705.50;5022021;28;20030;-75
2022/03/09 07:56:37;;;;;;;30.70;19.90;;;;;;;2.02;97.72;100674.22;4974126;28;20038;-75
2022/03/09 07:59:08;;;;;;;31.47;20.53;;;;;;;2.06;96.27;100676.22;5019357;28;20493;-76
2022/03/09 08:01:34;;;;;;;34.07;21.97;;;;;;;2.17;94.11;100689.75;5015038;28;20033;-76
2022/03/09 08:04:00;;;;;;;34.37;21.67;;;;;;;2.16;94.33;100689.66;5003108;28;20030;-75
2022/03/09 08:06:25;;;;;;;32.63;20.40;;;;;;;2.39;93.47;100704.06;5018335;28;20041;-77
2022/03/09 08:08:51;;;;;;;34.23;23.37;;;;;;;2.65;94.70;100705.09;5021168;28;20484;-76
2022/03/09 08:11:16;;;;;;;33.83;21.67;;;;;;;2.50;91.35;100685.34;5021337;28;20041;-77
2022/03/09 08:13:42;;;;;;;34.63;22.37;;;;;;;2.38;93.76;100697.19;5020017;28;20163;-76
2022/03/09 08:16:08;;;;;;;30.30;20.48;;;;;;;2.39;92.90;100676.94;5021757;28;20078;-76
2022/03/09 08:18:34;;;;;;;35.00;21.00;;;;;;;2.31;92.89;100698.41;5020131;28;20105;-76
2022/03/09 08:21:00;;;;;;;31.83;19.57;;;;;;;1.86;92.38;100656.03;5020004;28;20025;-75
2022/03/09 08:23:26;;;;;;;34.77;22.53;;;;;;;2.15;92.00;100690.41;5021590;28;20033;-76
2022/03/09 08:25:52;;;;;;;31.60;18.97;;;;;;;1.90;93.80;100646.19;5018726;28;20026;-76
2022/03/09 08:28:18;;;;;;;32.73;20.50;;;;;;;1.98;94.08;100641.69;5020692;28;20163;-75
2022/03/09 08:30:44;;;;;;;31.10;19.73;;;;;;;2.25;91.77;100680.13;5011937;28;20054;-75
2022/03/09 08:33:09;;;;;;;30.50;20.03;;;;;;;2.37;91.06;100682.69;5026614;28;20498;-75
2022/03/09 08:35:35;;;;;;;32.77;20.77;;;;;;;2.45;89.57;100680.72;5023437;28;20033;-75
2022/03/09 08:38:00;;;;;;;33.17;21.23;;;;;;;2.72;91.83;100687.78;5019410;28;20143;-76
2022/03/09 08:40:26;;;;;;;33.33;20.73;;;;;;;2.74;88.53;100681.16;5021170;28;20399;-75
2022/03/09 08:42:52;;;;;;;27.63;18.02;;;;;;;2.61;89.30;100670.84;5002410;28;20025;-76
2022/03/09 08:45:18;;;;;;;31.23;19.60;;;;;;;2.34;89.40;100644.25;5020311;28;20025;-76
2022/03/09 08:47:44;;;;;;;28.20;18.03;;;;;;;2.53;87.39;100677.03;5018983;28;20127;-75
2022/03/09 08:50:10;;;;;;;31.92;19.98;;;;;;;2.47;90.11;100669.84;5020592;28;20104;-75
2022/03/09 08:52:36;;;;;;;30.13;19.70;;;;;;;2.37;89.79;100635.16;5020265;28;20116;-75
2022/03/09 08:55:03;;;;;;;30.10;18.38;;;;;;;2.63;89.65;100663.28;5019519;28;20045;-76
2022/03/09 08:57:29;;;;;;;32.13;19.87;;;;;;;2.63;89.55;100671.84;5015512;28;20029;-75
2022/03/09 08:59:57;;;;;;;31.00;19.37;;;;;;;2.71;90.61;100657.97;5020249;28;20036;-75
2022/03/09 09:02:23;;;;;;;74.85;41.55;;;;;;;2.83;90.72;100665.63;5019225;28;20018;-76
2022/03/09 09:04:48;;;;;;;34.30;20.83;;;;;;;3.03;88.46;100659.38;5016777;28;20582;-76
2022/03/09 09:07:14;;;;;;;75.70;40.33;;;;;;;3.01;90.00;100632.84;5016998;28;20033;-75
2022/03/09 09:09:39;;;;;;;27.17;17.67;;;;;;;3.20;89.35;100668.22;5018260;28;20037;-76
2022/03/09 09:12:05;;;;;;;31.25;19.90;;;;;;;2.98;88.08;100637.75;5021414;28;20034;-75
2022/03/09 09:14:31;;;;;;;29.47;18.77;;;;;;;3.02;87.79;100672.91;5030691;28;20084;-76
2022/03/09 09:16:56;;;;;;;32.77;22.17;;;;;;;2.79;87.69;100634.69;5030223;28;20017;-75
2022/03/09 09:19:22;;;;;;;28.35;18.55;;;;;;;3.00;87.92;100661.69;5030043;28;20026;-75
2022/03/09 09:21:47;;;;;;;33.40;21.00;;;;;;;3.17;88.42;100656.91;5030263;28;20044;-75
2022/03/09 09:24:13;;;;;;;28.25;18.48;;;;;;;3.47;86.43;100639.38;5034401;28;20443;-75
2022/03/09 09:26:39;;;;;;;29.98;19.85;;;;;;;3.80;85.19;100662.84;5034412;28;20037;-76
2022/03/09 09:29:06;;;;;;;25.30;17.42;;;;;;;3.99;81.35;100642.00;5034419;28;20042;-76
2022/03/09 09:31:32;;;;;;;25.63;17.15;;;;;;;4.17;79.29;100655.97;5002069;28;20404;-75
2022/03/09 09:33:58;;;;;;;26.83;17.20;;;;;;;4.24;81.19;100638.47;5017594;28;20091;-76
2022/03/09 09:36:23;;;;;;;27.33;16.85;;;;;;;4.42;79.92;100656.69;5005155;28;20025;-76
2022/03/09 09:38:50;;;;;;;24.17;15.30;;;;;;;4.37;78.02;100644.50;5024340;28;20075;-76
2022/03/09 09:41:19;;;;;;;27.38;17.15;;;;;;;4.18;77.83;100647.50;5022784;28;20026;-76
2022/03/09 09:43:45;;;;;;;27.25;17.75;;;;;;;4.25;78.06;100659.03;5023467;28;20017;-76
2022/03/09 09:46:13;;;;;;;26.63;18.90;;;;;;;4.17;80.35;100635.50;5024599;28;20025;-77
2022/03/09 09:48:39;;;;;;;28.42;16.83;;;;;;;4.23;80.29;100649.50;5020417;28;20405;-77
2022/03/09 09:51:05;;;;;;;23.25;15.45;;;;;;;4.05;80.03;100652.63;5017243;28;20034;-76
2022/03/09 09:53:33;;;;;;;25.00;16.98;;;;;;;3.73;82.27;100636.91;4998551;28;20037;-77
2022/03/09 09:56:00;;;;;;;27.20;17.63;;;;;;;3.62;85.11;100642.97;5023114;28;20467;-76
2022/03/09 09:58:28;;;;;;;27.77;17.30;;;;;;;3.33;84.49;100638.44;5022030;28;20506;-76
2022/03/09 10:00:54;;;;;;;25.23;16.58;;;;;;;3.45;83.83;100653.69;5020221;28;20026;-76
2022/03/09 10:03:20;;;;;;;25.05;16.63;;;;;;;3.38;83.85;100657.50;5023467;28;20028;-77
2022/03/09 10:05:45;;;;;;;26.35;16.65;;;;;;;2.55;84.85;100494.53;5022979;28;20627;-76
2022/03/09 10:08:17;;;;;;;25.40;16.38;;;;;;;3.71;86.77;100642.69;5022086;28;20041;-76
2022/03/09 10:10:45;;;;;;;28.20;18.17;;;;;;;3.62;87.48;100591.91;5024015;28;20459;-76
2022/03/09 10:13:33;;;;;;;27.02;18.08;;;;;;;4.06;87.20;100631.38;4971501;28;20042;-76
2022/03/09 10:16:10;;;;;;;25.30;17.88;;;;;;;3.95;87.14;100600.03;4971034;28;20055;-76
2022/03/09 10:18:36;;;;;;;26.40;16.65;;;;;;;4.19;87.30;100628.84;4971123;28;20038;-77
2022/03/09 10:21:14;;;;;;;22.25;15.38;;;;;;;4.23;85.65;100640.16;4969107;28;20414;-76
2022/03/09 10:24:05;;;;;;;21.58;15.27;;;;;;;4.24;84.29;100631.72;4971868;28;20043;-77
2022/03/09 10:26:40;;;;;;;27.83;16.70;;;;;;;4.45;81.90;100621.97;4970378;28;20418;-76
2022/03/09 10:29:11;;;;;;;24.83;16.42;;;;;;;4.93;82.94;100627.50;4968956;28;20054;-76
2022/03/09 10:31:37;;;;;;;26.73;16.15;;;;;;;4.95;78.45;100630.19;4971188;28;20061;-76
2022/03/09 10:34:10;;;;;;;17.80;12.07;;;;;;;5.07;74.79;100623.28;4950831;28;20097;-76
2022/03/09 10:36:37;;;;;;;15.23;10.13;;;;;;;5.01;71.27;100622.91;4954819;28;20499;-76
2022/03/09 10:39:14;;;;;;;14.02;9.50;;;;;;;4.42;69.28;100519.50;4967111;28;20043;-76
2022/03/09 10:41:40;;;;;;;17.58;10.77;;;;;;;5.09;74.12;100618.25;4968701;28;20022;-76
2022/03/09 10:44:06;;;;;;;15.27;10.98;;;;;;;5.14;72.41;100616.84;4982671;28;20127;-77
2022/03/09 10:46:50;;;;;;;11.90;7.75;;;;;;;4.57;71.27;100570.72;5014621;28;20045;-77
2022/03/09 10:49:24;;;;;;;14.30;9.38;;;;;;;4.59;68.67;100625.41;5022805;28;20057;-76
2022/03/09 10:51:51;;;;;;;13.52;9.10;;;;;;;4.50;71.27;100615.47;5022500;28;20399;-77
2022/03/09 10:54:28;;;;;;;14.25;9.75;;;;;;;4.51;71.56;100612.16;5021271;28;20814;-76
2022/03/09 10:57:08;;;;;;;14.57;9.27;;;;;;;4.25;72.12;100571.25;5021628;28;20030;-77
2022/03/09 10:59:45;;;;;;;14.18;9.80;;;;;;;4.44;70.69;100611.66;5022176;28;20030;-77
2022/03/09 11:02:11;;;;;;;13.02;9.10;;;;;;;4.48;71.09;100606.81;5004106;28;20029;-77
2022/03/09 11:04:38;;;;;;;16.08;10.60;;;;;;;4.44;72.75;100586.97;5003711;28;20113;-77
2022/03/09 11:07:04;;;;;;;17.40;11.73;;;;;;;4.27;72.34;100551.78;4995788;28;20026;-76